Madeline — WDF2406 — position and weather

sailwx.info

Track history (hours):
 
Tides and Currents Weather Stations Pressure Air Temp Water Temp Dewpoint Dewpoint Depression Visibility Wind Speed Wind Dir Waves Ship Positions

Madeline

Owner: Enterprise Marine Services, LLC, San Antonio, TX. More information available from US FCC via Universal Licensing System and Coast Guard Vessel Documentation Center.

Last reported at 2014-Oct-31 13:25 UTC. Time now 2014-Oct-31 13:45 UTC.
Position N 29°44' W 095°01'.

Length 30 m; draft 8 m.

Type: Tug. MMSI: 367350460.

Date/timePositionNaut miles runAvg speedWind from/ knotsBaromVisibWave heightAir tempDewpointWater temp
2014-Oct-31 13:25N 29°44' W 095°01'0 0.0
2014-Oct-31 12:33N 29°44' W 095°01'0 0.0
2014-Oct-31 11:29N 29°44' W 095°01'0 0.0
2014-Oct-31 10:33N 29°44' W 095°01'0 0.0
2014-Oct-31 09:25N 29°44' W 095°01'0 0.0
2014-Oct-31 08:30N 29°44' W 095°01'0 0.0
2014-Oct-31 07:13N 29°44' W 095°01'3 4.4
2014-Oct-31 06:33N 29°45' W 095°04'2 0.9
2014-Oct-31 04:22N 29°47' W 095°05'1 0.8
2014-Oct-31 03:30N 29°47' W 095°04'3 0.7
2014-Oct-30 22:27N 29°44' W 095°03'0 0.0
2014-Oct-30 21:33N 29°44' W 095°03'0 0.0
2014-Oct-30 19:04N 29°44' W 095°03'0 0.0
2014-Oct-30 15:23N 29°44' W 095°03'0 0.0
2014-Oct-30 13:32N 29°44' W 095°03'0 0.0
2014-Oct-30 11:04N 29°44' W 095°03'2 3.2
2014-Oct-30 10:31N 29°45' W 095°04'2 0.1
2014-Oct-29 21:17N 29°47' W 095°05'0 0.0
2014-Oct-29 14:13N 29°47' W 095°05'0 0.0
2014-Oct-29 12:07N 29°47' W 095°05'0 0.0
2014-Oct-29 11:33N 29°47' W 095°05'0 0.0
2014-Oct-29 07:29N 29°47' W 095°05'0 0.0
2014-Oct-29 06:33N 29°47' W 095°05'1 0.1
2014-Oct-28 23:18N 29°47' W 095°05'0 0.0
2014-Oct-28 22:03N 29°47' W 095°05'0 0.0
2014-Oct-28 21:33N 29°47' W 095°05'0 0.0
2014-Oct-28 20:32N 29°47' W 095°05'1 0.6
2014-Oct-28 19:32N 29°46' W 095°05'4 4.4
2014-Oct-28 18:33N 29°43' W 095°01'5 5.2
2014-Oct-28 17:33N 29°39' W 094°58'6 6.3
2014-Oct-28 16:33N 29°33' W 094°55'13 5.4
2014-Oct-28 14:10N 29°21' W 094°49'  
Track history (hours):
 
Tides and Currents Weather Stations Pressure Air Temp Water Temp Dewpoint Dewpoint Depression Visibility Wind Speed Wind Dir Waves Ship Positions

Madeline

Owner: Enterprise Marine Services, LLC, San Antonio, TX. More information available from US FCC via Universal Licensing System and Coast Guard Vessel Documentation Center.

Last reported at 2014-Oct-31 13:25 UTC. Time now 2014-Oct-31 13:45 UTC.
Position N 29°44' W 095°01'.

Length 30 m; draft 8 m.

Type: Tug. MMSI: 367350460.

Date/timePositionNaut miles runAvg speedWind from/ knotsBaromVisibWave heightAir tempDewpointWater temp
2014-Oct-31 13:25N 29°44' W 095°01'0 0.0
2014-Oct-31 12:33N 29°44' W 095°01'0 0.0
2014-Oct-31 11:29N 29°44' W 095°01'0 0.0
2014-Oct-31 10:33N 29°44' W 095°01'0 0.0
2014-Oct-31 09:25N 29°44' W 095°01'0 0.0
2014-Oct-31 08:30N 29°44' W 095°01'0 0.0
2014-Oct-31 07:13N 29°44' W 095°01'3 4.4
2014-Oct-31 06:33N 29°45' W 095°04'2 0.9
2014-Oct-31 04:22N 29°47' W 095°05'1 0.8
2014-Oct-31 03:30N 29°47' W 095°04'3 0.7
2014-Oct-30 22:27N 29°44' W 095°03'0 0.0
2014-Oct-30 21:33N 29°44' W 095°03'0 0.0
2014-Oct-30 19:04N 29°44' W 095°03'0 0.0
2014-Oct-30 15:23N 29°44' W 095°03'0 0.0
2014-Oct-30 13:32N 29°44' W 095°03'0 0.0
2014-Oct-30 11:04N 29°44' W 095°03'2 3.2
2014-Oct-30 10:31N 29°45' W 095°04'2 0.1
2014-Oct-29 21:17N 29°47' W 095°05'0 0.0
2014-Oct-29 14:13N 29°47' W 095°05'0 0.0
2014-Oct-29 12:07N 29°47' W 095°05'0 0.0
2014-Oct-29 11:33N 29°47' W 095°05'0 0.0
2014-Oct-29 07:29N 29°47' W 095°05'0 0.0
2014-Oct-29 06:33N 29°47' W 095°05'1 0.1
2014-Oct-28 23:18N 29°47' W 095°05'0 0.0
2014-Oct-28 22:03N 29°47' W 095°05'0 0.0
2014-Oct-28 21:33N 29°47' W 095°05'0 0.0
2014-Oct-28 20:32N 29°47' W 095°05'1 0.6
2014-Oct-28 19:32N 29°46' W 095°05'4 4.4
2014-Oct-28 18:33N 29°43' W 095°01'5 5.2
2014-Oct-28 17:33N 29°39' W 094°58'6 6.3
2014-Oct-28 16:33N 29°33' W 094°55'13 5.4
2014-Oct-28 14:10N 29°21' W 094°49'  

Dump ship's entire track history